sensor_id;sensor_type;location;lat;lon;timestamp;P1;durP1;ratioP1;P2;durP2;ratioP2
6197;SDS011;3132;42.622;23.328;2023-03-23T00:02:29;12.17;;;11.13;;
6197;SDS011;3132;42.622;23.328;2023-03-23T00:05:00;12.60;;;11.63;;
6197;SDS011;3132;42.622;23.328;2023-03-23T00:07:29;12.20;;;11.40;;
6197;SDS011;3132;42.622;23.328;2023-03-23T00:09:55;11.97;;;11.17;;
6197;SDS011;3132;42.622;23.328;2023-03-23T00:12:21;11.53;;;10.67;;
6197;SDS011;3132;42.622;23.328;2023-03-23T00:14:53;11.77;;;10.97;;
6197;SDS011;3132;42.622;23.328;2023-03-23T00:17:20;11.07;;;10.27;;
6197;SDS011;3132;42.622;23.328;2023-03-23T00:19:45;11.47;;;10.57;;
6197;SDS011;3132;42.622;23.328;2023-03-23T00:22:14;11.27;;;10.57;;
6197;SDS011;3132;42.622;23.328;2023-03-23T00:24:41;11.40;;;10.40;;
6197;SDS011;3132;42.622;23.328;2023-03-23T00:27:08;12.00;;;11.03;;
6197;SDS011;3132;42.622;23.328;2023-03-23T00:29:39;10.97;;;10.37;;
6197;SDS011;3132;42.622;23.328;2023-03-23T00:32:07;10.73;;;9.93;;
6197;SDS011;3132;42.622;23.328;2023-03-23T00:34:39;9.87;;;9.33;;
6197;SDS011;3132;42.622;23.328;2023-03-23T00:37:06;10.87;;;10.07;;
6197;SDS011;3132;42.622;23.328;2023-03-23T00:39:32;10.70;;;10.03;;
6197;SDS011;3132;42.622;23.328;2023-03-23T00:42:01;11.63;;;10.83;;
6197;SDS011;3132;42.622;23.328;2023-03-23T00:44:28;11.40;;;10.60;;
6197;SDS011;3132;42.622;23.328;2023-03-23T00:46:55;11.67;;;10.70;;
6197;SDS011;3132;42.622;23.328;2023-03-23T00:49:22;11.80;;;11.10;;
6197;SDS011;3132;42.622;23.328;2023-03-23T00:51:55;11.50;;;10.80;;
6197;SDS011;3132;42.622;23.328;2023-03-23T00:54:23;11.30;;;10.50;;
6197;SDS011;3132;42.622;23.328;2023-03-23T00:56:50;12.03;;;11.23;;
6197;SDS011;3132;42.622;23.328;2023-03-23T00:59:16;11.73;;;10.67;;
6197;SDS011;3132;42.622;23.328;2023-03-23T01:01:41;10.67;;;10.07;;
6197;SDS011;3132;42.622;23.328;2023-03-23T01:04:07;12.13;;;11.07;;
6197;SDS011;3132;42.622;23.328;2023-03-23T01:06:37;12.30;;;11.50;;
6197;SDS011;3132;42.622;23.328;2023-03-23T01:09:09;12.70;;;11.70;;
6197;SDS011;3132;42.622;23.328;2023-03-23T01:11:39;12.93;;;11.93;;
6197;SDS011;3132;42.622;23.328;2023-03-23T01:14:05;13.23;;;11.97;;
6197;SDS011;3132;42.622;23.328;2023-03-23T01:16:31;14.60;;;13.40;;
6197;SDS011;3132;42.622;23.328;2023-03-23T01:18:56;14.73;;;13.63;;
6197;SDS011;3132;42.622;23.328;2023-03-23T01:21:21;17.23;;;15.40;;
6197;SDS011;3132;42.622;23.328;2023-03-23T01:23:47;17.50;;;15.97;;
6197;SDS011;3132;42.622;23.328;2023-03-23T01:26:15;16.20;;;14.67;;
6197;SDS011;3132;42.622;23.328;2023-03-23T01:28:43;19.47;;;16.77;;
6197;SDS011;3132;42.622;23.328;2023-03-23T01:31:12;20.13;;;17.43;;
6197;SDS011;3132;42.622;23.328;2023-03-23T01:33:40;20.43;;;17.60;;
6197;SDS011;3132;42.622;23.328;2023-03-23T01:36:08;20.50;;;18.03;;
6197;SDS011;3132;42.622;23.328;2023-03-23T01:38:38;21.47;;;17.30;;
6197;SDS011;3132;42.622;23.328;2023-03-23T01:41:04;19.33;;;17.17;;
6197;SDS011;3132;42.622;23.328;2023-03-23T01:43:30;20.60;;;18.27;;
6197;SDS011;3132;42.622;23.328;2023-03-23T01:45:56;20.20;;;16.60;;
6197;SDS011;3132;42.622;23.328;2023-03-23T01:48:26;19.43;;;16.20;;
6197;SDS011;3132;42.622;23.328;2023-03-23T01:53:21;16.10;;;14.70;;
6197;SDS011;3132;42.622;23.328;2023-03-23T01:55:50;15.63;;;14.13;;
6197;SDS011;3132;42.622;23.328;2023-03-23T01:58:23;16.23;;;14.80;;
6197;SDS011;3132;42.622;23.328;2023-03-23T02:00:53;14.57;;;13.37;;
6197;SDS011;3132;42.622;23.328;2023-03-23T02:03:20;14.50;;;13.20;;
6197;SDS011;3132;42.622;23.328;2023-03-23T02:05:48;14.17;;;12.87;;
6197;SDS011;3132;42.622;23.328;2023-03-23T02:08:14;14.50;;;13.27;;
6197;SDS011;3132;42.622;23.328;2023-03-23T02:10:41;15.13;;;13.73;;
6197;SDS011;3132;42.622;23.328;2023-03-23T02:13:07;14.60;;;13.27;;
6197;SDS011;3132;42.622;23.328;2023-03-23T02:15:45;13.73;;;12.43;;
6197;SDS011;3132;42.622;23.328;2023-03-23T02:24:43;15.77;;;14.37;;
6197;SDS011;3132;42.622;23.328;2023-03-23T02:27:17;15.30;;;13.67;;
6197;SDS011;3132;42.622;23.328;2023-03-23T02:35:22;16.70;;;14.93;;
6197;SDS011;3132;42.622;23.328;2023-03-23T02:38:00;16.67;;;15.07;;
6197;SDS011;3132;42.622;23.328;2023-03-23T02:40:30;16.03;;;14.47;;
6197;SDS011;3132;42.622;23.328;2023-03-23T02:43:01;14.30;;;13.03;;
6197;SDS011;3132;42.622;23.328;2023-03-23T02:45:31;15.07;;;13.57;;
6197;SDS011;3132;42.622;23.328;2023-03-23T02:47:59;15.00;;;13.60;;
6197;SDS011;3132;42.622;23.328;2023-03-23T02:50:27;15.67;;;14.37;;
6197;SDS011;3132;42.622;23.328;2023-03-23T02:52:55;16.17;;;14.63;;
6197;SDS011;3132;42.622;23.328;2023-03-23T02:55:23;15.03;;;13.53;;
6197;SDS011;3132;42.622;23.328;2023-03-23T02:57:51;15.60;;;14.20;;
6197;SDS011;3132;42.622;23.328;2023-03-23T03:00:18;15.80;;;14.20;;
6197;SDS011;3132;42.622;23.328;2023-03-23T03:02:47;14.97;;;13.43;;
6197;SDS011;3132;42.622;23.328;2023-03-23T03:13:19;15.63;;;14.13;;
6197;SDS011;3132;42.622;23.328;2023-03-23T03:21:50;14.90;;;13.50;;
6197;SDS011;3132;42.622;23.328;2023-03-23T03:24:18;15.33;;;13.93;;
6197;SDS011;3132;42.622;23.328;2023-03-23T03:26:46;16.93;;;15.43;;
6197;SDS011;3132;42.622;23.328;2023-03-23T03:29:15;14.37;;;13.23;;
6197;SDS011;3132;42.622;23.328;2023-03-23T03:31:43;15.80;;;14.40;;
6197;SDS011;3132;42.622;23.328;2023-03-23T03:34:11;15.57;;;14.17;;
6197;SDS011;3132;42.622;23.328;2023-03-23T03:36:43;15.90;;;14.40;;
6197;SDS011;3132;42.622;23.328;2023-03-23T03:39:11;14.17;;;12.87;;
6197;SDS011;3132;42.622;23.328;2023-03-23T03:41:39;14.03;;;12.77;;
6197;SDS011;3132;42.622;23.328;2023-03-23T03:44:06;13.70;;;12.50;;
6197;SDS011;3132;42.622;23.328;2023-03-23T03:46:32;14.23;;;13.00;;
6197;SDS011;3132;42.622;23.328;2023-03-23T03:48:58;13.97;;;12.77;;
6197;SDS011;3132;42.622;23.328;2023-03-23T03:51:26;13.43;;;12.20;;
6197;SDS011;3132;42.622;23.328;2023-03-23T03:53:52;15.90;;;14.30;;
6197;SDS011;3132;42.622;23.328;2023-03-23T03:56:18;15.00;;;13.80;;
6197;SDS011;3132;42.622;23.328;2023-03-23T03:58:45;14.47;;;13.20;;
6197;SDS011;3132;42.622;23.328;2023-03-23T04:01:13;14.37;;;13.07;;
6197;SDS011;3132;42.622;23.328;2023-03-23T04:03:40;13.73;;;12.63;;
6197;SDS011;3132;42.622;23.328;2023-03-23T04:06:06;14.83;;;13.40;;
6197;SDS011;3132;42.622;23.328;2023-03-23T04:08:33;13.80;;;12.60;;
6197;SDS011;3132;42.622;23.328;2023-03-23T04:10:59;13.43;;;12.40;;
6197;SDS011;3132;42.622;23.328;2023-03-23T04:13:25;13.83;;;12.73;;
6197;SDS011;3132;42.622;23.328;2023-03-23T04:15:50;13.70;;;12.40;;
6197;SDS011;3132;42.622;23.328;2023-03-23T04:18:16;14.17;;;12.97;;
6197;SDS011;3132;42.622;23.328;2023-03-23T04:20:46;14.70;;;13.37;;
6197;SDS011;3132;42.622;23.328;2023-03-23T04:23:14;13.67;;;12.67;;
6197;SDS011;3132;42.622;23.328;2023-03-23T04:25:45;14.90;;;13.50;;
6197;SDS011;3132;42.622;23.328;2023-03-23T04:28:11;14.63;;;13.43;;
6197;SDS011;3132;42.622;23.328;2023-03-23T04:30:37;14.33;;;13.17;;
6197;SDS011;3132;42.622;23.328;2023-03-23T04:33:02;13.47;;;12.23;;
6197;SDS011;3132;42.622;23.328;2023-03-23T04:35:28;14.90;;;13.57;;
6197;SDS011;3132;42.622;23.328;2023-03-23T04:37:54;14.50;;;13.30;;
6197;SDS011;3132;42.622;23.328;2023-03-23T04:40:21;14.07;;;13.00;;
6197;SDS011;3132;42.622;23.328;2023-03-23T04:42:47;13.40;;;12.37;;
6197;SDS011;3132;42.622;23.328;2023-03-23T04:45:15;15.67;;;14.07;;
6197;SDS011;3132;42.622;23.328;2023-03-23T04:47:46;14.47;;;13.10;;
6197;SDS011;3132;42.622;23.328;2023-03-23T04:50:18;14.53;;;13.23;;
6197;SDS011;3132;42.622;23.328;2023-03-23T04:52:45;13.97;;;12.87;;
6197;SDS011;3132;42.622;23.328;2023-03-23T04:55:11;13.70;;;12.50;;
6197;SDS011;3132;42.622;23.328;2023-03-23T04:57:37;14.77;;;13.37;;
6197;SDS011;3132;42.622;23.328;2023-03-23T05:00:04;14.67;;;13.47;;
6197;SDS011;3132;42.622;23.328;2023-03-23T05:02:35;13.97;;;12.80;;
6197;SDS011;3132;42.622;23.328;2023-03-23T05:05:01;14.80;;;13.23;;
6197;SDS011;3132;42.622;23.328;2023-03-23T05:07:26;14.67;;;13.00;;
6197;SDS011;3132;42.622;23.328;2023-03-23T05:09:51;14.83;;;13.53;;
6197;SDS011;3132;42.622;23.328;2023-03-23T05:12:17;16.57;;;14.80;;
6197;SDS011;3132;42.622;23.328;2023-03-23T05:14:42;15.50;;;14.10;;
6197;SDS011;3132;42.622;23.328;2023-03-23T05:17:08;15.83;;;14.33;;
6197;SDS011;3132;42.622;23.328;2023-03-23T05:19:34;14.83;;;13.50;;
6197;SDS011;3132;42.622;23.328;2023-03-23T05:22:01;14.97;;;13.70;;
6197;SDS011;3132;42.622;23.328;2023-03-23T05:24:29;15.80;;;14.57;;
6197;SDS011;3132;42.622;23.328;2023-03-23T05:26:57;17.03;;;15.53;;
6197;SDS011;3132;42.622;23.328;2023-03-23T05:29:24;17.90;;;15.80;;
6197;SDS011;3132;42.622;23.328;2023-03-23T05:31:50;19.57;;;15.90;;
6197;SDS011;3132;42.622;23.328;2023-03-23T05:34:17;16.20;;;14.77;;
6197;SDS011;3132;42.622;23.328;2023-03-23T05:36:44;20.70;;;18.43;;
6197;SDS011;3132;42.622;23.328;2023-03-23T05:39:12;19.67;;;16.93;;
6197;SDS011;3132;42.622;23.328;2023-03-23T05:41:39;44.67;;;41.43;;
6197;SDS011;3132;42.622;23.328;2023-03-23T05:44:05;18.93;;;16.80;;
6197;SDS011;3132;42.622;23.328;2023-03-23T05:46:30;19.30;;;17.37;;
6197;SDS011;3132;42.622;23.328;2023-03-23T05:48:56;21.07;;;16.03;;
6197;SDS011;3132;42.622;23.328;2023-03-23T05:51:21;27.27;;;21.87;;
6197;SDS011;3132;42.622;23.328;2023-03-23T05:53:47;30.60;;;23.80;;
6197;SDS011;3132;42.622;23.328;2023-03-23T05:56:13;33.30;;;25.90;;
6197;SDS011;3132;42.622;23.328;2023-03-23T05:58:39;34.47;;;24.80;;
6197;SDS011;3132;42.622;23.328;2023-03-23T06:01:08;34.97;;;26.23;;
6197;SDS011;3132;42.622;23.328;2023-03-23T06:03:34;35.03;;;23.97;;
6197;SDS011;3132;42.622;23.328;2023-03-23T06:06:01;31.27;;;25.07;;
6197;SDS011;3132;42.622;23.328;2023-03-23T06:08:28;30.00;;;24.80;;
6197;SDS011;3132;42.622;23.328;2023-03-23T06:10:53;31.87;;;24.80;;
6197;SDS011;3132;42.622;23.328;2023-03-23T06:13:20;37.97;;;26.23;;
6197;SDS011;3132;42.622;23.328;2023-03-23T06:15:46;35.53;;;29.03;;
6197;SDS011;3132;42.622;23.328;2023-03-23T06:18:12;33.60;;;26.67;;
6197;SDS011;3132;42.622;23.328;2023-03-23T06:20:38;37.30;;;25.83;;
6197;SDS011;3132;42.622;23.328;2023-03-23T06:23:04;29.37;;;23.03;;
6197;SDS011;3132;42.622;23.328;2023-03-23T06:25:30;30.50;;;23.70;;
6197;SDS011;3132;42.622;23.328;2023-03-23T06:27:56;27.97;;;21.63;;
6197;SDS011;3132;42.622;23.328;2023-03-23T06:30:22;33.30;;;24.27;;
6197;SDS011;3132;42.622;23.328;2023-03-23T06:32:48;27.33;;;22.73;;
6197;SDS011;3132;42.622;23.328;2023-03-23T06:35:14;28.83;;;23.83;;
6197;SDS011;3132;42.622;23.328;2023-03-23T06:37:40;28.70;;;22.50;;
6197;SDS011;3132;42.622;23.328;2023-03-23T06:40:06;30.30;;;25.73;;
6197;SDS011;3132;42.622;23.328;2023-03-23T06:42:32;29.63;;;23.87;;
6197;SDS011;3132;42.622;23.328;2023-03-23T06:44:58;30.83;;;23.10;;
6197;SDS011;3132;42.622;23.328;2023-03-23T06:47:25;30.77;;;23.40;;
6197;SDS011;3132;42.622;23.328;2023-03-23T06:49:52;29.13;;;23.33;;
6197;SDS011;3132;42.622;23.328;2023-03-23T06:52:17;37.77;;;25.40;;
6197;SDS011;3132;42.622;23.328;2023-03-23T06:54:43;33.67;;;24.60;;
6197;SDS011;3132;42.622;23.328;2023-03-23T06:57:09;32.07;;;24.43;;
6197;SDS011;3132;42.622;23.328;2023-03-23T06:59:34;33.50;;;24.47;;
6197;SDS011;3132;42.622;23.328;2023-03-23T07:02:00;35.40;;;24.60;;
6197;SDS011;3132;42.622;23.328;2023-03-23T07:04:26;35.77;;;26.10;;
6197;SDS011;3132;42.622;23.328;2023-03-23T07:06:52;31.30;;;24.80;;
6197;SDS011;3132;42.622;23.328;2023-03-23T07:09:17;33.10;;;26.20;;
6197;SDS011;3132;42.622;23.328;2023-03-23T07:11:42;35.47;;;25.20;;
6197;SDS011;3132;42.622;23.328;2023-03-23T07:14:09;36.97;;;25.13;;
6197;SDS011;3132;42.622;23.328;2023-03-23T07:16:35;35.97;;;25.93;;
6197;SDS011;3132;42.622;23.328;2023-03-23T07:19:00;34.63;;;26.07;;
6197;SDS011;3132;42.622;23.328;2023-03-23T07:21:26;32.73;;;26.13;;
6197;SDS011;3132;42.622;23.328;2023-03-23T07:23:51;37.27;;;27.30;;
6197;SDS011;3132;42.622;23.328;2023-03-23T07:26:17;35.60;;;26.43;;
6197;SDS011;3132;42.622;23.328;2023-03-23T07:28:42;34.53;;;26.30;;
6197;SDS011;3132;42.622;23.328;2023-03-23T07:31:08;39.17;;;24.77;;
6197;SDS011;3132;42.622;23.328;2023-03-23T07:33:34;34.13;;;26.23;;
6197;SDS011;3132;42.622;23.328;2023-03-23T07:36:00;34.57;;;25.20;;
6197;SDS011;3132;42.622;23.328;2023-03-23T07:38:28;37.47;;;26.27;;
6197;SDS011;3132;42.622;23.328;2023-03-23T07:40:55;34.80;;;25.17;;
6197;SDS011;3132;42.622;23.328;2023-03-23T07:43:21;39.60;;;25.33;;
6197;SDS011;3132;42.622;23.328;2023-03-23T07:45:47;30.70;;;24.67;;
6197;SDS011;3132;42.622;23.328;2023-03-23T07:48:13;34.30;;;24.90;;
6197;SDS011;3132;42.622;23.328;2023-03-23T07:50:38;40.43;;;24.90;;
6197;SDS011;3132;42.622;23.328;2023-03-23T07:53:04;30.03;;;21.63;;
6197;SDS011;3132;42.622;23.328;2023-03-23T07:55:30;27.97;;;21.93;;
6197;SDS011;3132;42.622;23.328;2023-03-23T07:57:55;30.43;;;21.50;;
6197;SDS011;3132;42.622;23.328;2023-03-23T08:00:22;28.43;;;22.27;;
6197;SDS011;3132;42.622;23.328;2023-03-23T08:02:55;31.73;;;22.47;;
6197;SDS011;3132;42.622;23.328;2023-03-23T08:05:22;28.10;;;21.50;;
6197;SDS011;3132;42.622;23.328;2023-03-23T08:07:50;26.40;;;22.23;;
6197;SDS011;3132;42.622;23.328;2023-03-23T08:10:18;23.20;;;20.63;;
6197;SDS011;3132;42.622;23.328;2023-03-23T08:12:44;26.17;;;21.33;;
6197;SDS011;3132;42.622;23.328;2023-03-23T08:15:11;30.63;;;21.90;;
6197;SDS011;3132;42.622;23.328;2023-03-23T08:17:39;26.93;;;21.87;;
6197;SDS011;3132;42.622;23.328;2023-03-23T08:20:05;23.83;;;20.80;;
6197;SDS011;3132;42.622;23.328;2023-03-23T08:22:37;23.53;;;20.30;;
6197;SDS011;3132;42.622;23.328;2023-03-23T08:25:08;23.33;;;19.53;;
6197;SDS011;3132;42.622;23.328;2023-03-23T08:27:35;21.20;;;18.97;;
6197;SDS011;3132;42.622;23.328;2023-03-23T08:30:02;21.73;;;19.27;;
6197;SDS011;3132;42.622;23.328;2023-03-23T08:32:31;20.47;;;16.80;;
6197;SDS011;3132;42.622;23.328;2023-03-23T08:34:57;15.13;;;13.93;;
6197;SDS011;3132;42.622;23.328;2023-03-23T08:37:23;14.37;;;12.93;;
6197;SDS011;3132;42.622;23.328;2023-03-23T08:39:54;15.97;;;14.30;;
6197;SDS011;3132;42.622;23.328;2023-03-23T08:42:20;14.70;;;13.40;;
6197;SDS011;3132;42.622;23.328;2023-03-23T08:44:47;15.83;;;14.33;;
6197;SDS011;3132;42.622;23.328;2023-03-23T08:47:13;14.17;;;12.80;;
6197;SDS011;3132;42.622;23.328;2023-03-23T08:49:38;13.20;;;12.13;;
6197;SDS011;3132;42.622;23.328;2023-03-23T08:52:03;14.70;;;13.40;;
6197;SDS011;3132;42.622;23.328;2023-03-23T08:54:29;13.87;;;12.70;;
6197;SDS011;3132;42.622;23.328;2023-03-23T08:57:00;13.80;;;12.67;;
6197;SDS011;3132;42.622;23.328;2023-03-23T08:59:26;13.63;;;12.40;;
6197;SDS011;3132;42.622;23.328;2023-03-23T09:01:53;14.40;;;13.23;;
6197;SDS011;3132;42.622;23.328;2023-03-23T09:04:18;14.87;;;13.57;;
6197;SDS011;3132;42.622;23.328;2023-03-23T09:06:44;14.20;;;12.83;;
6197;SDS011;3132;42.622;23.328;2023-03-23T09:09:10;14.33;;;13.07;;
6197;SDS011;3132;42.622;23.328;2023-03-23T09:11:36;14.27;;;13.07;;
6197;SDS011;3132;42.622;23.328;2023-03-23T09:14:02;13.20;;;12.03;;
6197;SDS011;3132;42.622;23.328;2023-03-23T09:16:29;13.43;;;12.33;;
6197;SDS011;3132;42.622;23.328;2023-03-23T09:18:54;13.60;;;12.40;;
6197;SDS011;3132;42.622;23.328;2023-03-23T09:21:21;13.90;;;12.60;;
6197;SDS011;3132;42.622;23.328;2023-03-23T09:23:51;14.10;;;12.90;;
6197;SDS011;3132;42.622;23.328;2023-03-23T09:26:18;14.13;;;12.47;;
6197;SDS011;3132;42.622;23.328;2023-03-23T09:28:43;14.00;;;12.67;;
6197;SDS011;3132;42.622;23.328;2023-03-23T09:31:10;14.53;;;13.13;;
6197;SDS011;3132;42.622;23.328;2023-03-23T09:33:36;12.63;;;11.50;;
6197;SDS011;3132;42.622;23.328;2023-03-23T09:36:02;13.90;;;12.70;;
6197;SDS011;3132;42.622;23.328;2023-03-23T09:38:30;12.77;;;11.77;;
6197;SDS011;3132;42.622;23.328;2023-03-23T09:41:03;13.90;;;12.70;;
6197;SDS011;3132;42.622;23.328;2023-03-23T09:49:07;14.73;;;13.40;;
6197;SDS011;3132;42.622;23.328;2023-03-23T09:51:39;14.83;;;13.57;;
6197;SDS011;3132;42.622;23.328;2023-03-23T09:54:29;13.50;;;12.43;;
6197;SDS011;3132;42.622;23.328;2023-03-23T09:56:58;13.80;;;12.50;;
6197;SDS011;3132;42.622;23.328;2023-03-23T09:59:30;14.60;;;13.33;;
6197;SDS011;3132;42.622;23.328;2023-03-23T10:04:44;15.87;;;13.63;;
6197;SDS011;3132;42.622;23.328;2023-03-23T10:07:33;14.50;;;13.40;;
6197;SDS011;3132;42.622;23.328;2023-03-23T10:09:59;14.27;;;13.10;;
6197;SDS011;3132;42.622;23.328;2023-03-23T10:12:36;12.80;;;11.90;;
6197;SDS011;3132;42.622;23.328;2023-03-23T10:15:26;14.47;;;13.17;;
6197;SDS011;3132;42.622;23.328;2023-03-23T10:18:01;13.50;;;12.43;;
6197;SDS011;3132;42.622;23.328;2023-03-23T10:25:59;11.87;;;10.77;;
6197;SDS011;3132;42.622;23.328;2023-03-23T10:28:36;14.27;;;13.17;;
6197;SDS011;3132;42.622;23.328;2023-03-23T10:31:04;13.50;;;12.37;;
6197;SDS011;3132;42.622;23.328;2023-03-23T10:33:46;13.40;;;12.40;;
6197;SDS011;3132;42.622;23.328;2023-03-23T10:36:19;13.17;;;12.17;;
6197;SDS011;3132;42.622;23.328;2023-03-23T10:39:01;13.50;;;12.50;;
6197;SDS011;3132;42.622;23.328;2023-03-23T10:41:38;14.10;;;13.00;;
6197;SDS011;3132;42.622;23.328;2023-03-23T10:44:23;12.93;;;11.90;;
6197;SDS011;3132;42.622;23.328;2023-03-23T10:47:00;14.63;;;13.23;;
6197;SDS011;3132;42.622;23.328;2023-03-23T10:49:33;14.23;;;13.03;;
6197;SDS011;3132;42.622;23.328;2023-03-23T10:52:05;13.53;;;12.43;;
6197;SDS011;3132;42.622;23.328;2023-03-23T10:54:34;17.53;;;12.73;;
6197;SDS011;3132;42.622;23.328;2023-03-23T10:57:12;13.83;;;12.73;;
6197;SDS011;3132;42.622;23.328;2023-03-23T10:59:45;14.40;;;13.03;;
6197;SDS011;3132;42.622;23.328;2023-03-23T11:02:14;14.27;;;13.03;;
6197;SDS011;3132;42.622;23.328;2023-03-23T11:04:45;14.63;;;13.17;;
6197;SDS011;3132;42.622;23.328;2023-03-23T11:07:17;13.37;;;12.17;;
6197;SDS011;3132;42.622;23.328;2023-03-23T11:09:53;13.67;;;12.63;;
6197;SDS011;3132;42.622;23.328;2023-03-23T11:12:20;13.07;;;12.00;;
6197;SDS011;3132;42.622;23.328;2023-03-23T11:14:47;14.93;;;13.60;;
6197;SDS011;3132;42.622;23.328;2023-03-23T11:17:24;14.97;;;13.53;;
6197;SDS011;3132;42.622;23.328;2023-03-23T11:19:51;14.03;;;12.47;;
6197;SDS011;3132;42.622;23.328;2023-03-23T11:22:29;14.73;;;13.53;;
6197;SDS011;3132;42.622;23.328;2023-03-23T11:25:01;12.83;;;11.80;;
6197;SDS011;3132;42.622;23.328;2023-03-23T11:27:29;14.27;;;13.03;;
6197;SDS011;3132;42.622;23.328;2023-03-23T11:30:40;13.57;;;12.40;;
6197;SDS011;3132;42.622;23.328;2023-03-23T11:32:46;13.17;;;11.90;;
6197;SDS011;3132;42.622;23.328;2023-03-23T11:35:20;13.37;;;12.07;;
6197;SDS011;3132;42.622;23.328;2023-03-23T11:37:49;15.13;;;13.83;;
6197;SDS011;3132;42.622;23.328;2023-03-23T11:40:21;15.97;;;14.00;;
6197;SDS011;3132;42.622;23.328;2023-03-23T11:56:09;14.30;;;13.00;;
6197;SDS011;3132;42.622;23.328;2023-03-23T11:58:38;14.70;;;13.50;;
6197;SDS011;3132;42.622;23.328;2023-03-23T12:01:13;12.77;;;11.77;;
6197;SDS011;3132;42.622;23.328;2023-03-23T12:03:58;13.17;;;12.17;;
6197;SDS011;3132;42.622;23.328;2023-03-23T12:23:24;14.87;;;13.60;;
6197;SDS011;3132;42.622;23.328;2023-03-23T12:48:08;13.60;;;12.37;;
6197;SDS011;3132;42.622;23.328;2023-03-23T12:50:42;13.40;;;12.17;;
6197;SDS011;3132;42.622;23.328;2023-03-23T12:53:28;13.87;;;12.87;;
6197;SDS011;3132;42.622;23.328;2023-03-23T12:58:37;12.67;;;11.60;;
6197;SDS011;3132;42.622;23.328;2023-03-23T13:01:09;12.87;;;11.87;;
6197;SDS011;3132;42.622;23.328;2023-03-23T13:09:03;13.60;;;12.47;;
6197;SDS011;3132;42.622;23.328;2023-03-23T13:11:35;13.57;;;12.43;;
6197;SDS011;3132;42.622;23.328;2023-03-23T13:22:39;13.03;;;12.03;;
6197;SDS011;3132;42.622;23.328;2023-03-23T13:25:13;12.90;;;11.70;;
6197;SDS011;3132;42.622;23.328;2023-03-23T13:27:44;13.23;;;12.07;;
6197;SDS011;3132;42.622;23.328;2023-03-23T13:30:24;13.90;;;12.63;;
6197;SDS011;3132;42.622;23.328;2023-03-23T13:32:50;12.43;;;11.53;;
6197;SDS011;3132;42.622;23.328;2023-03-23T13:35:18;12.77;;;11.53;;
6197;SDS011;3132;42.622;23.328;2023-03-23T13:37:47;13.07;;;11.97;;
6197;SDS011;3132;42.622;23.328;2023-03-23T13:40:19;13.33;;;12.33;;
6197;SDS011;3132;42.622;23.328;2023-03-23T13:42:50;13.87;;;12.43;;
6197;SDS011;3132;42.622;23.328;2023-03-23T13:50:48;13.30;;;12.17;;
6197;SDS011;3132;42.622;23.328;2023-03-23T13:56:05;11.90;;;10.90;;
6197;SDS011;3132;42.622;23.328;2023-03-23T13:58:43;14.07;;;12.90;;
6197;SDS011;3132;42.622;23.328;2023-03-23T14:01:19;12.60;;;11.43;;
6197;SDS011;3132;42.622;23.328;2023-03-23T14:04:00;12.70;;;11.63;;
6197;SDS011;3132;42.622;23.328;2023-03-23T14:06:33;12.17;;;11.07;;
6197;SDS011;3132;42.622;23.328;2023-03-23T14:09:04;12.83;;;11.83;;
6197;SDS011;3132;42.622;23.328;2023-03-23T14:11:31;12.80;;;11.90;;
6197;SDS011;3132;42.622;23.328;2023-03-23T14:13:59;13.37;;;12.17;;
6197;SDS011;3132;42.622;23.328;2023-03-23T14:19:15;12.33;;;11.30;;
6197;SDS011;3132;42.622;23.328;2023-03-23T14:21:58;14.07;;;12.97;;
6197;SDS011;3132;42.622;23.328;2023-03-23T14:24:33;13.20;;;12.27;;
6197;SDS011;3132;42.622;23.328;2023-03-23T14:29:30;12.37;;;11.47;;
6197;SDS011;3132;42.622;23.328;2023-03-23T14:31:56;12.70;;;11.70;;
6197;SDS011;3132;42.622;23.328;2023-03-23T14:34:24;12.90;;;11.90;;
6197;SDS011;3132;42.622;23.328;2023-03-23T14:36:53;12.17;;;11.27;;
6197;SDS011;3132;42.622;23.328;2023-03-23T14:39:29;12.73;;;11.63;;
6197;SDS011;3132;42.622;23.328;2023-03-23T14:42:00;13.60;;;12.50;;
6197;SDS011;3132;42.622;23.328;2023-03-23T14:44:34;13.50;;;12.27;;
6197;SDS011;3132;42.622;23.328;2023-03-23T14:47:04;14.90;;;12.73;;
6197;SDS011;3132;42.622;23.328;2023-03-23T14:49:41;12.37;;;11.37;;
6197;SDS011;3132;42.622;23.328;2023-03-23T14:52:11;13.07;;;12.07;;
6197;SDS011;3132;42.622;23.328;2023-03-23T14:54:38;14.23;;;13.13;;
6197;SDS011;3132;42.622;23.328;2023-03-23T14:59:42;14.30;;;13.07;;
6197;SDS011;3132;42.622;23.328;2023-03-23T15:02:17;14.03;;;13.03;;
6197;SDS011;3132;42.622;23.328;2023-03-23T15:04:50;12.73;;;11.70;;
6197;SDS011;3132;42.622;23.328;2023-03-23T15:07:18;13.23;;;12.23;;
6197;SDS011;3132;42.622;23.328;2023-03-23T15:09:45;14.10;;;12.90;;
6197;SDS011;3132;42.622;23.328;2023-03-23T15:12:22;13.63;;;12.43;;
6197;SDS011;3132;42.622;23.328;2023-03-23T15:14:52;12.57;;;11.60;;
6197;SDS011;3132;42.622;23.328;2023-03-23T15:17:21;12.43;;;11.53;;
6197;SDS011;3132;42.622;23.328;2023-03-23T15:19:49;13.43;;;12.33;;
6197;SDS011;3132;42.622;23.328;2023-03-23T15:22:23;13.40;;;12.30;;
6197;SDS011;3132;42.622;23.328;2023-03-23T15:27:31;12.47;;;11.27;;
6197;SDS011;3132;42.622;23.328;2023-03-23T15:29:59;14.47;;;13.27;;
6197;SDS011;3132;42.622;23.328;2023-03-23T15:32:38;12.23;;;11.23;;
6197;SDS011;3132;42.622;23.328;2023-03-23T15:35:13;13.10;;;11.80;;
6197;SDS011;3132;42.622;23.328;2023-03-23T15:37:51;12.67;;;11.67;;
6197;SDS011;3132;42.622;23.328;2023-03-23T15:40:22;12.10;;;11.10;;
6197;SDS011;3132;42.622;23.328;2023-03-23T15:42:49;13.30;;;12.30;;
6197;SDS011;3132;42.622;23.328;2023-03-23T15:45:30;12.57;;;11.57;;
6197;SDS011;3132;42.622;23.328;2023-03-23T15:47:57;13.47;;;12.40;;
6197;SDS011;3132;42.622;23.328;2023-03-23T15:52:54;13.10;;;12.03;;
6197;SDS011;3132;42.622;23.328;2023-03-23T15:57:52;15.40;;;13.83;;
6197;SDS011;3132;42.622;23.328;2023-03-23T16:00:19;16.40;;;14.87;;
6197;SDS011;3132;42.622;23.328;2023-03-23T16:02:46;18.67;;;14.63;;
6197;SDS011;3132;42.622;23.328;2023-03-23T16:05:15;14.83;;;13.33;;
6197;SDS011;3132;42.622;23.328;2023-03-23T16:07:40;19.03;;;13.47;;
6197;SDS011;3132;42.622;23.328;2023-03-23T16:10:06;13.87;;;12.47;;
6197;SDS011;3132;42.622;23.328;2023-03-23T16:12:38;12.57;;;11.40;;
6197;SDS011;3132;42.622;23.328;2023-03-23T16:15:04;13.27;;;12.07;;
6197;SDS011;3132;42.622;23.328;2023-03-23T16:17:30;14.37;;;12.90;;
6197;SDS011;3132;42.622;23.328;2023-03-23T16:19:57;12.73;;;11.53;;
6197;SDS011;3132;42.622;23.328;2023-03-23T16:22:22;14.77;;;13.57;;
6197;SDS011;3132;42.622;23.328;2023-03-23T16:24:47;13.93;;;12.83;;
6197;SDS011;3132;42.622;23.328;2023-03-23T16:27:13;13.27;;;12.03;;
6197;SDS011;3132;42.622;23.328;2023-03-23T16:29:38;14.47;;;13.10;;
6197;SDS011;3132;42.622;23.328;2023-03-23T16:32:04;13.43;;;12.33;;
6197;SDS011;3132;42.622;23.328;2023-03-23T16:34:30;14.77;;;13.67;;
6197;SDS011;3132;42.622;23.328;2023-03-23T16:36:57;17.57;;;13.80;;
6197;SDS011;3132;42.622;23.328;2023-03-23T16:39:23;15.37;;;14.00;;
6197;SDS011;3132;42.622;23.328;2023-03-23T16:41:48;14.53;;;13.07;;
6197;SDS011;3132;42.622;23.328;2023-03-23T16:44:14;14.80;;;13.13;;
6197;SDS011;3132;42.622;23.328;2023-03-23T16:46:40;13.03;;;11.93;;
6197;SDS011;3132;42.622;23.328;2023-03-23T16:49:05;13.90;;;12.50;;
6197;SDS011;3132;42.622;23.328;2023-03-23T16:51:30;14.70;;;13.47;;
6197;SDS011;3132;42.622;23.328;2023-03-23T16:53:56;13.80;;;12.60;;
6197;SDS011;3132;42.622;23.328;2023-03-23T16:56:22;13.07;;;11.77;;
6197;SDS011;3132;42.622;23.328;2023-03-23T16:58:47;21.80;;;14.00;;
6197;SDS011;3132;42.622;23.328;2023-03-23T17:01:12;13.93;;;12.77;;